createdAt,value
2023-05-23T00:04:47.722Z,15.03
2023-05-23T00:14:49.593Z,15.02
2023-05-23T00:24:52.875Z,14.96
2023-05-23T00:34:56.061Z,15.01
2023-05-23T00:44:57.752Z,14.89
2023-05-23T00:55:00.303Z,14.82
2023-05-23T01:05:04.067Z,14.77
2023-05-23T01:15:17.619Z,14.70
2023-05-23T01:25:59.542Z,14.55
2023-05-23T01:36:05.582Z,14.43
2023-05-23T01:46:08.742Z,14.33
2023-05-23T01:56:10.997Z,14.21
2023-05-23T02:06:12.720Z,14.07
2023-05-23T02:16:14.346Z,13.99
2023-05-23T02:26:16.436Z,13.83
2023-05-23T02:36:18.135Z,13.74
2023-05-23T02:46:19.870Z,13.79
2023-05-23T02:56:22.408Z,13.77
2023-05-23T03:06:24.185Z,13.59
2023-05-23T03:16:26.028Z,13.58
2023-05-23T03:26:27.818Z,13.64
2023-05-23T03:36:29.588Z,13.70
2023-05-23T03:46:31.663Z,13.84
2023-05-23T03:56:33.573Z,13.97
2023-05-23T04:06:35.450Z,14.14
2023-05-23T04:16:38.716Z,14.49
2023-05-23T04:26:40.618Z,14.69
2023-05-23T04:36:50.392Z,14.96
2023-05-23T04:46:52.122Z,15.20
2023-05-23T04:56:53.785Z,15.43
2023-05-23T05:06:55.914Z,15.75
2023-05-23T05:16:57.942Z,16.00
2023-05-23T05:27:01.020Z,16.40
2023-05-23T05:37:06.177Z,16.81
2023-05-23T05:47:07.887Z,17.34
2023-05-23T05:57:09.650Z,17.90
2023-05-23T06:07:11.840Z,18.21
2023-05-23T06:17:15.072Z,18.31
2023-05-23T06:27:18.009Z,18.86
2023-05-23T06:37:19.700Z,19.54
2023-05-23T06:47:21.589Z,20.15
2023-05-23T06:57:23.251Z,20.74
2023-05-23T07:07:25.960Z,21.12
2023-05-23T07:17:30.155Z,21.69
2023-05-23T07:27:31.833Z,22.06
2023-05-23T07:37:34.867Z,22.49
2023-05-23T07:47:37.564Z,22.99
2023-05-23T07:57:39.706Z,23.26
2023-05-23T08:07:41.398Z,23.59
2023-05-23T08:17:44.393Z,23.95
2023-05-23T08:27:46.150Z,24.55
2023-05-23T08:37:48.600Z,24.84
2023-05-23T08:47:52.826Z,25.16
2023-05-23T08:57:56.476Z,25.57
2023-05-23T09:07:58.784Z,25.84
2023-05-23T09:18:04.390Z,26.32
2023-05-23T09:28:06.495Z,29.87
2023-05-23T09:38:08.347Z,32.26
2023-05-23T09:48:14.183Z,32.20
2023-05-23T09:58:18.834Z,34.25
2023-05-23T10:08:31.209Z,33.88
2023-05-23T10:18:39.980Z,35.69
2023-05-23T10:28:42.234Z,31.51
2023-05-23T10:38:58.754Z,34.76
2023-05-23T10:49:01.611Z,30.57
2023-05-23T10:59:06.445Z,33.40
2023-05-23T11:09:12.972Z,34.86
2023-05-23T11:19:30.935Z,37.83
2023-05-23T11:29:32.938Z,37.36
2023-05-23T11:39:34.936Z,37.99
2023-05-23T11:49:40.426Z,36.74
2023-05-23T11:59:45.117Z,35.57
2023-05-23T12:09:47.493Z,41.37
2023-05-23T12:19:49.615Z,35.48
2023-05-23T12:29:52.336Z,35.43
2023-05-23T12:39:53.987Z,35.78
2023-05-23T12:49:55.807Z,35.41
2023-05-23T12:59:57.796Z,38.91
2023-05-23T13:10:02.473Z,39.38
2023-05-23T13:20:05.460Z,38.88
2023-05-23T13:30:10.036Z,41.17
2023-05-23T13:40:20.526Z,40.02
2023-05-23T13:50:22.364Z,38.61
2023-05-23T14:00:27.531Z,35.55
2023-05-23T14:10:29.638Z,36.12
2023-05-23T14:20:32.094Z,35.92
2023-05-23T14:30:33.684Z,32.37
2023-05-23T14:40:35.375Z,37.32
2023-05-23T14:50:39.624Z,36.19
2023-05-23T15:00:41.569Z,37.91
2023-05-23T15:10:45.218Z,36.54
2023-05-23T15:20:48.134Z,35.75
2023-05-23T15:30:49.767Z,30.34
2023-05-23T15:40:54.912Z,28.14
2023-05-23T15:50:57.212Z,28.13
2023-05-23T16:01:00.509Z,26.41
2023-05-23T16:11:03.285Z,25.64
2023-05-23T16:21:05.194Z,25.35
2023-05-23T16:31:10.399Z,25.10
2023-05-23T16:41:17.423Z,24.58
2023-05-23T16:51:19.316Z,24.21
2023-05-23T17:01:21.707Z,23.74
2023-05-23T17:11:23.881Z,23.23
2023-05-23T17:21:25.954Z,23.03
2023-05-23T17:31:30.428Z,21.45
2023-05-23T17:41:32.456Z,20.66
2023-05-23T17:51:34.085Z,20.24
2023-05-23T18:01:35.709Z,19.87
2023-05-23T18:11:38.334Z,19.53
2023-05-23T18:21:40.097Z,19.25
2023-05-23T18:31:42.183Z,19.21
2023-05-23T18:41:46.771Z,19.32
2023-05-23T18:51:48.593Z,19.34
2023-05-23T19:01:51.763Z,19.43
2023-05-23T19:11:53.642Z,19.31
2023-05-23T19:21:55.860Z,18.85
2023-05-23T19:32:06.153Z,18.51
2023-05-23T19:42:08.154Z,18.39
2023-05-23T19:52:09.887Z,18.13
2023-05-23T20:02:21.008Z,18.12
2023-05-23T20:12:23.561Z,17.81
2023-05-23T20:22:26.882Z,17.73
2023-05-23T20:32:28.737Z,17.65
2023-05-23T20:42:32.802Z,17.69
2023-05-23T20:52:37.147Z,17.60
2023-05-23T21:02:43.501Z,17.58
2023-05-23T21:12:50.236Z,17.42
2023-05-23T21:22:52.102Z,17.20
2023-05-23T21:32:53.877Z,17.00
2023-05-23T21:42:55.590Z,16.72
2023-05-23T21:52:58.249Z,16.83
2023-05-23T22:03:00.230Z,16.80
2023-05-23T22:13:03.493Z,16.62
2023-05-23T22:23:06.270Z,16.55
2023-05-23T22:33:13.288Z,16.28
2023-05-23T22:43:15.080Z,16.09
2023-05-23T22:53:16.869Z,16.06
2023-05-23T23:03:18.745Z,16.07
2023-05-23T23:13:20.692Z,16.22
2023-05-23T23:23:22.621Z,16.31
2023-05-23T23:33:24.287Z,16.58
2023-05-23T23:43:25.998Z,16.68
2023-05-23T23:53:27.965Z,16.82
